Route Details

Aircraft Information
Group: Trans-Pacific Ops
Types: B744, MD11
Route Data
Distance: 679nm
Duration: 2h 10m
Origin METAR: RKSI 160100Z 28007KT 240V310 9999 SCT025 26/22 Q1004 NOSIG
Dest. METAR: RJAA 160100Z 22012G22KT 9999 FEW020 BKN/// 32/26 Q1003 NOSIG
Freight Data
(for Aug 16, 2022)
Load Factor:
35%
Manifested Cargo: 72,204lbs
Financial History
Total Freight: 1,100,533lbs
Average Load: 0lbs/flt
Fuel Used: 285,693lbs
Avg. Fuel Used: 0lbs/flt
Fuel Expense: $133,218
Avg. Fuel Expense: $0
Avg. Fuel Cost: $0/lbs
Total Gross Income: $2,515,233
Pilot Pay: $2,340
Total Expenses: $362,589
Total Revenue: $2,014,461
Average Revenue: $0

Capitol Logistics 814




RKSI
Incheon International Airport
Seoul, KR
RJAA
Tokyo-Narita International Airport
Tokyo, JP